Time;durP1;ratioP1;P1;durP2;ratioP2;P2;SDS_P1;SDS_P2;PMS_P1;PMS_P2;Temp;Humidity;BMP_temperature;BMP_pressure;BME280_temperature;BME280_humidity;BME280_pressure;Samples;Min_cycle;Max_cycle;Signal;HPM_P1;HPM_P2
2022/08/14 00:02:13;;;;;;;4.3;2.8;;;;;;;15.8;69.87207;936.0465;;;;
2022/08/14 00:04:38;;;;;;;3.7;3.1;;;;;;;15.61;70.56934;936.0103;;;;
2022/08/14 00:07:03;;;;;;;5.3;2.9;;;;;;;15.48;71.25098;935.9589;;;;
2022/08/14 00:09:29;;;;;;;3.1;2.7;;;;;;;15.56;70.94043;935.9385;;;;
2022/08/14 00:11:55;;;;;;;3.6;2.5;;;;;;;15.61;70.74121;935.9221;;;;
2022/08/14 00:14:20;;;;;;;4.7;2.9;;;;;;;15.36;71.69336;935.9023;;;;
2022/08/14 00:19:49;;;;;;;3.1;2.8;;;;;;;15.36;71.83398;935.8251;;;;
2022/08/14 00:22:17;;;;;;;3.2;2.8;;;;;;;15.35;71.80859;935.774;;;;
2022/08/14 00:24:39;;;;;;;3;2.4;;;;;;;15.44;71.55859;935.7771;;;;
2022/08/14 00:27:05;;;;;;;3.5;2.8;;;;;;;15.48;71.40234;935.7043;;;;
2022/08/14 00:29:30;;;;;;;3.5;2.6;;;;;;;15.29;72.12207;935.7082;;;;
2022/08/14 00:31:59;;;;;;;3;2.6;;;;;;;15.21;72.35254;935.6736;;;;
2022/08/14 00:34:24;;;;;;;3.1;2.8;;;;;;;15.22;72.46777;935.673;;;;
2022/08/14 00:36:50;;;;;;;3.4;2.5;;;;;;;15.21;72.41016;935.664;;;;
2022/08/14 00:39:15;;;;;;;2.9;2.7;;;;;;;15.07;72.98438;935.6914;;;;
2022/08/14 00:41:42;;;;;;;3.3;2.9;;;;;;;14.89;73.83105;935.7076;;;;
2022/08/14 00:44:07;;;;;;;3.3;2.7;;;;;;;14.8;74.25391;935.5938;;;;
2022/08/14 00:46:33;;;;;;;2.8;2.6;;;;;;;14.91;73.69727;935.6761;;;;
2022/08/14 00:48:58;;;;;;;3.5;2.6;;;;;;;14.92;73.50293;935.7048;;;;
2022/08/14 00:51:23;;;;;;;5.2;3;;;;;;;15;73.45703;935.6311;;;;
2022/08/14 00:53:50;;;;;;;2.7;2.5;;;;;;;14.94;73.43652;935.6053;;;;
2022/08/14 00:56:19;;;;;;;2.8;2.6;;;;;;;14.82;74.1543;935.6291;;;;
2022/08/14 00:58:45;;;;;;;3;2.6;;;;;;;14.77;74.3418;935.6253;;;;
2022/08/14 01:01:13;;;;;;;3.2;2.9;;;;;;;14.88;73.84277;935.6211;;;;
2022/08/14 01:03:38;;;;;;;2.9;2.6;;;;;;;14.87;73.95508;935.5812;;;;
2022/08/14 01:06:04;;;;;;;3.3;2.8;;;;;;;14.68;74.84668;935.5253;;;;
2022/08/14 01:08:29;;;;;;;2.6;2.4;;;;;;;14.64;74.92871;935.5563;;;;
2022/08/14 01:10:54;;;;;;;4.5;2.8;;;;;;;14.48;75.55957;935.5399;;;;
2022/08/14 01:13:20;;;;;;;3.1;2.8;;;;;;;14.54;75.37305;935.4623;;;;
2022/08/14 01:15:46;;;;;;;3.4;2.8;;;;;;;14.46;75.66016;935.4007;;;;
2022/08/14 01:21:08;;;;;;;3.6;2.9;;;;;;;14.47;75.22266;935.3038;;;;
2022/08/14 01:23:32;;;;;;;2.8;2.6;;;;;;;14.31;75.7041;935.2991;;;;
2022/08/14 01:25:59;;;;;;;2.9;2.7;;;;;;;14.25;76.2002;935.3173;;;;
2022/08/14 01:29:16;;;;;;;2.9;2.6;;;;;;;14.36;76.25293;935.2457;;;;
2022/08/14 01:31:42;;;;;;;2.8;2.6;;;;;;;14.42;75.76758;935.175;;;;
2022/08/14 01:34:05;;;;;;;3.2;2.9;;;;;;;14.44;75.58594;935.1005;;;;
2022/08/14 01:36:35;;;;;;;3;2.7;;;;;;;14.49;75.31934;935.0767;;;;
2022/08/14 01:38:59;;;;;;;3.2;2.9;;;;;;;14.34;75.83594;935.0585;;;;
2022/08/14 01:41:27;;;;;;;3.4;2.5;;;;;;;14.45;75.40527;935.0266;;;;
2022/08/14 01:43:52;;;;;;;3.3;2.7;;;;;;;14.38;75.69238;934.9996;;;;
2022/08/14 01:46:17;;;;;;;3.6;3.3;;;;;;;14.3;75.96582;935.0629;;;;
2022/08/14 01:48:43;;;;;;;5.3;3.4;;;;;;;14.31;75.95605;935.0187;;;;
2022/08/14 01:51:09;;;;;;;4.2;3;;;;;;;14.25;76.46484;935.0129;;;;
2022/08/14 01:53:35;;;;;;;2.9;2.7;;;;;;;14.15;76.91895;934.9319;;;;
2022/08/14 01:56:03;;;;;;;4.3;2.7;;;;;;;14.29;76.33301;934.906;;;;
2022/08/14 01:58:28;;;;;;;2.9;2.6;;;;;;;14.33;76.09766;934.92;;;;
2022/08/14 02:00:57;;;;;;;3.2;2.8;;;;;;;14.29;76.43652;934.8621;;;;
2022/08/14 02:03:22;;;;;;;3.1;2.8;;;;;;;14.3;76.3457;934.8531;;;;
2022/08/14 02:06:08;;;;;;;3.2;2.5;;;;;;;14.31;76.20898;934.7385;;;;
2022/08/14 02:08:36;;;;;;;3.5;2.7;;;;;;;14.18;76.7168;934.7539;;;;
2022/08/14 02:11:21;;;;;;;4.2;2.7;;;;;;;14.13;76.73242;934.7119;;;;
2022/08/14 02:17:05;;;;;;;3.9;3.3;;;;;;;14.21;76.47852;934.5942;;;;
2022/08/14 02:19:34;;;;;;;4;2.9;;;;;;;14.14;76.83594;934.6006;;;;
2022/08/14 02:21:58;;;;;;;3.4;2.7;;;;;;;13.95;77.57324;934.611;;;;
2022/08/14 02:24:24;;;;;;;3.1;2.7;;;;;;;14;77.3877;934.5728;;;;
2022/08/14 02:26:49;;;;;;;3.5;2.7;;;;;;;13.95;77.50586;934.5525;;;;
2022/08/14 02:29:16;;;;;;;2.8;2.6;;;;;;;13.87;77.86914;934.5037;;;;
2022/08/14 02:31:40;;;;;;;4.4;2.7;;;;;;;13.64;79.00195;934.4894;;;;
2022/08/14 02:34:09;;;;;;;3.3;3;;;;;;;13.61;79.43457;934.4685;;;;
2022/08/14 02:36:33;;;;;;;3;2.7;;;;;;;13.66;78.96094;934.3668;;;;
2022/08/14 02:39:02;;;;;;;3.2;2.9;;;;;;;13.71;78.68164;934.3287;;;;
2022/08/14 02:41:27;;;;;;;2.9;2.7;;;;;;;13.67;78.77734;934.2363;;;;
2022/08/14 02:43:54;;;;;;;3;2.7;;;;;;;13.67;78.76563;934.2771;;;;
2022/08/14 02:46:20;;;;;;;3.1;2.8;;;;;;;13.63;79.01074;934.2535;;;;
2022/08/14 02:48:46;;;;;;;5.1;2.9;;;;;;;13.67;78.59277;934.3076;;;;
2022/08/14 02:51:14;;;;;;;3.2;2.5;;;;;;;13.49;79.39941;934.3295;;;;
2022/08/14 02:53:40;;;;;;;3.3;2.8;;;;;;;13.39;80.19922;934.334;;;;
2022/08/14 02:56:08;;;;;;;2.8;2.5;;;;;;;13.53;79.64941;934.2764;;;;
2022/08/14 02:58:33;;;;;;;3;2.7;;;;;;;13.55;79.41309;934.233;;;;
2022/08/14 03:01:01;;;;;;;3;2.7;;;;;;;13.58;79.53125;934.3016;;;;
2022/08/14 03:03:27;;;;;;;4.2;2.8;;;;;;;13.47;79.84668;934.2433;;;;
2022/08/14 03:05:56;;;;;;;4.2;3.1;;;;;;;13.36;80.08887;934.3015;;;;
2022/08/14 03:08:21;;;;;;;3;2.8;;;;;;;13.39;80.18555;934.3876;;;;
2022/08/14 03:10:48;;;;;;;2.8;2.6;;;;;;;13.29;80.70801;934.3964;;;;
2022/08/14 03:13:13;;;;;;;3.7;3.2;;;;;;;13.24;81.02148;934.3879;;;;
2022/08/14 03:15:45;;;;;;;6.3;3.3;;;;;;;13.38;80.39258;934.4045;;;;
2022/08/14 03:18:07;;;;;;;3.3;3;;;;;;;13.38;80.43848;934.3261;;;;
2022/08/14 03:20:34;;;;;;;4.2;3.3;;;;;;;13.46;79.92383;934.2747;;;;
2022/08/14 03:22:59;;;;;;;4.7;2.9;;;;;;;13.47;79.78711;934.2977;;;;
2022/08/14 03:25:29;;;;;;;3.5;3.2;;;;;;;13.33;80.49805;934.3466;;;;
2022/08/14 03:28:02;;;;;;;3.6;3.1;;;;;;;13.43;80.25195;934.1558;;;;
2022/08/14 03:30:24;;;;;;;4.7;3.1;;;;;;;13.57;79.5293;934.2145;;;;
2022/08/14 03:32:49;;;;;;;2.9;2.7;;;;;;;13.47;79.78906;934.1458;;;;
2022/08/14 03:35:18;;;;;;;4.2;3.1;;;;;;;13.48;79.56055;934.192;;;;
2022/08/14 03:37:42;;;;;;;4.5;2.6;;;;;;;13.49;79.48047;934.1415;;;;
2022/08/14 03:40:12;;;;;;;3.2;2.9;;;;;;;13.46;79.63574;933.9922;;;;
2022/08/14 03:42:42;;;;;;;4.8;3.1;;;;;;;13.63;78.80371;934.0598;;;;
2022/08/14 03:45:07;;;;;;;5.1;2.7;;;;;;;13.74;78.12305;934.0229;;;;
2022/08/14 03:47:35;;;;;;;3.3;2.8;;;;;;;13.44;79.35645;933.9973;;;;
2022/08/14 03:49:59;;;;;;;5.7;3.2;;;;;;;13.33;80.11816;934.0947;;;;
2022/08/14 03:52:30;;;;;;;2.9;2.6;;;;;;;13.27;80.26563;934.0623;;;;
2022/08/14 03:54:59;;;;;;;4.2;3.1;;;;;;;13.29;80.11035;934.0926;;;;
2022/08/14 03:57:23;;;;;;;3.9;3.2;;;;;;;13.4;79.30469;934.0292;;;;
2022/08/14 03:59:49;;;;;;;3.2;2.9;;;;;;;13.33;79.70508;934.0483;;;;
2022/08/14 04:02:37;;;;;;;4;3.1;;;;;;;13.09;80.98242;934.0175;;;;
2022/08/14 04:05:02;;;;;;;3.3;3;;;;;;;13.04;81.35156;934.0322;;;;
2022/08/14 04:07:27;;;;;;;4.6;3.3;;;;;;;13.1;81.08594;933.9815;;;;
2022/08/14 04:09:56;;;;;;;5.9;3.6;;;;;;;13.05;81.1582;933.9826;;;;
2022/08/14 04:12:21;;;;;;;4.5;3.4;;;;;;;13.13;80.80566;933.9749;;;;
2022/08/14 04:14:46;;;;;;;3.9;2.9;;;;;;;13.11;80.88086;933.9191;;;;
2022/08/14 04:17:11;;;;;;;4.1;3.3;;;;;;;13.15;80.69434;933.8675;;;;
2022/08/14 04:19:36;;;;;;;5.4;3.1;;;;;;;13.01;81.65527;933.9106;;;;
2022/08/14 04:22:02;;;;;;;3.3;3;;;;;;;12.84;82.8623;933.8423;;;;
2022/08/14 04:24:29;;;;;;;3.4;3.1;;;;;;;12.86;82.75293;933.8861;;;;
2022/08/14 04:26:54;;;;;;;3.8;3.2;;;;;;;12.77;83.18262;933.8448;;;;
2022/08/14 04:29:19;;;;;;;3.7;3.1;;;;;;;12.7;83.73145;933.8804;;;;
2022/08/14 04:31:45;;;;;;;4.4;3.3;;;;;;;12.54;84.51465;933.8395;;;;
2022/08/14 04:34:10;;;;;;;3.5;3.1;;;;;;;12.62;84.49609;933.7978;;;;
2022/08/14 04:43:34;;;;;;;3.3;3;;;;;;;12.77;83.67676;933.7569;;;;
2022/08/14 04:44:18;;;;;;;3.4;3.1;;;;;;;12.73;83.2334;933.7269;;;;
2022/08/14 04:48:11;;;;;;;5;3.5;;;;;;;12.74;83.17773;933.6589;;;;
2022/08/14 04:49:12;;;;;;;4.8;3.1;;;;;;;12.75;83.15527;933.6261;;;;
2022/08/14 04:51:42;;;;;;;3.4;3.1;;;;;;;12.45;84.72852;933.5158;;;;
2022/08/14 04:54:07;;;;;;;4.5;3.2;;;;;;;12.67;84.24219;933.5363;;;;
2022/08/14 04:56:36;;;;;;;3.4;3.1;;;;;;;12.81;83.39648;933.5586;;;;
2022/08/14 04:59:03;;;;;;;4.9;3.4;;;;;;;12.76;83.54688;933.5613;;;;
2022/08/14 05:01:26;;;;;;;4.5;3.3;;;;;;;12.71;83.90527;933.5536;;;;
2022/08/14 05:03:53;;;;;;;4.5;3.1;;;;;;;12.79;83.72754;933.4947;;;;
2022/08/14 05:06:19;;;;;;;3;2.8;;;;;;;13.01;82.86035;933.424;;;;
2022/08/14 05:08:45;;;;;;;3.3;2.8;;;;;;;13.2;82.06934;933.4063;;;;
2022/08/14 05:11:11;;;;;;;3.9;3.3;;;;;;;13.25;81.5166;933.3541;;;;
2022/08/14 05:13:36;;;;;;;4.6;3.4;;;;;;;13.01;82.28613;933.3464;;;;
2022/08/14 05:16:04;;;;;;;4;2.9;;;;;;;12.92;83.02832;933.3135;;;;
2022/08/14 05:18:31;;;;;;;4.7;3.5;;;;;;;12.96;83.11426;933.3309;;;;
2022/08/14 05:20:56;;;;;;;5.3;3.4;;;;;;;12.82;83.60645;933.4597;;;;
2022/08/14 05:23:24;;;;;;;3.9;3.6;;;;;;;12.72;84.2168;933.5184;;;;
2022/08/14 05:25:50;;;;;;;6.3;3.6;;;;;;;12.86;83.93457;933.5321;;;;
2022/08/14 05:28:17;;;;;;;5.5;3.7;;;;;;;13.12;83.05371;933.6008;;;;
2022/08/14 05:36:33;;;;;;;3;2.4;;;;;;;15.03;76.0127;933.6303;;;;
2022/08/14 05:39:03;;;;;;;2.5;2.3;;;;;;;16.63;68.91504;933.6078;;;;
2022/08/14 05:41:35;;;;;;;2.8;2.5;;;;;;;18.36;62.94531;933.5633;;;;
2022/08/14 05:44:04;;;;;;;4.2;2.6;;;;;;;19.65;58.54688;933.5211;;;;
2022/08/14 05:46:30;;;;;;;3;2.2;;;;;;;20.36;54.85938;933.4697;;;;
2022/08/14 05:52:38;;;;;;;2.5;2.3;;;;;;;22.63;49.4834;933.4849;;;;
2022/08/14 05:55:03;;;;;;;3.5;2;;;;;;;23.42;46.78418;933.5364;;;;
2022/08/14 05:57:29;;;;;;;2.5;2.1;;;;;;;23.61;46.4043;933.5751;;;;
2022/08/14 05:59:58;;;;;;;2.7;1.8;;;;;;;23.64;46.43164;933.4745;;;;
2022/08/14 06:02:23;;;;;;;2.6;2.1;;;;;;;23.31;46.53613;933.5508;;;;
2022/08/14 06:04:51;;;;;;;2.6;2;;;;;;;23.42;46.23145;933.4934;;;;
2022/08/14 06:07:16;;;;;;;3.4;1.9;;;;;;;23.31;45.36133;933.4305;;;;
2022/08/14 06:09:44;;;;;;;2.8;2;;;;;;;23.75;44.63086;933.4124;;;;
2022/08/14 06:12:09;;;;;;;2.3;2.1;;;;;;;24.03;44.64551;933.4641;;;;
2022/08/14 06:14:35;;;;;;;2.8;1.8;;;;;;;25.03;42.79883;933.4725;;;;
2022/08/14 06:17:00;;;;;;;2;1.9;;;;;;;25.32;41.45703;933.3633;;;;
2022/08/14 06:19:27;;;;;;;2.1;1.7;;;;;;;25.98;40.59668;933.4005;;;;
2022/08/14 06:21:52;;;;;;;2.3;1.8;;;;;;;25.99;40.24316;933.3777;;;;
2022/08/14 06:24:19;;;;;;;2.2;1.7;;;;;;;24.87;41.89941;933.3389;;;;
2022/08/14 06:26:45;;;;;;;2.1;1.9;;;;;;;26.18;40.36621;933.2544;;;;
2022/08/14 06:30:24;;;;;;;2.5;1.8;;;;;;;26.63;38.78418;933.2261;;;;
2022/08/14 06:32:49;;;;;;;2;1.8;;;;;;;26.31;40.46094;933.14;;;;
2022/08/14 06:35:14;;;;;;;1.7;1.6;;;;;;;27.29;37.65527;933.0949;;;;
2022/08/14 06:37:39;;;;;;;1.8;1.7;;;;;;;27.56;37.34473;933.0566;;;;
2022/08/14 06:40:12;;;;;;;1.8;1.7;;;;;;;27.9;37.37402;933.0402;;;;
2022/08/14 06:42:37;;;;;;;1.8;1.7;;;;;;;27.24;36.71387;932.9827;;;;
2022/08/14 06:45:02;;;;;;;2.3;1.6;;;;;;;27.48;36.62695;932.9012;;;;
2022/08/14 06:47:27;;;;;;;1.7;1.6;;;;;;;28.19;35.38965;932.8553;;;;
2022/08/14 06:49:53;;;;;;;1.9;1.8;;;;;;;28.95;33.9375;932.8654;;;;
2022/08/14 06:52:21;;;;;;;1.7;1.6;;;;;;;29.39;34.23242;932.8412;;;;
2022/08/14 06:54:46;;;;;;;3.3;1.6;;;;;;;27.31;38.20215;932.8237;;;;
2022/08/14 06:57:12;;;;;;;1.8;1.7;;;;;;;27.39;36.91602;932.7963;;;;
2022/08/14 06:59:37;;;;;;;1.6;1.5;;;;;;;26.9;37.52832;932.7366;;;;
2022/08/14 07:06:59;;;;;;;2;1.6;;;;;;;29.28;35.12988;932.6902;;;;
2022/08/14 07:09:30;;;;;;;1.7;1.6;;;;;;;30.8;32.46387;932.5608;;;;
2022/08/14 07:11:59;;;;;;;1.8;1.7;;;;;;;28.51;35.12891;932.5686;;;;
2022/08/14 07:14:24;;;;;;;1.8;1.7;;;;;;;28.09;36.19043;932.5272;;;;
2022/08/14 07:16:49;;;;;;;1.7;1.6;;;;;;;29.45;36.41797;932.4319;;;;
2022/08/14 07:19:16;;;;;;;1.8;1.7;;;;;;;28.81;34.50977;932.4158;;;;
2022/08/14 07:21:41;;;;;;;2;1.7;;;;;;;29.91;34.96484;932.3284;;;;
2022/08/14 07:24:09;;;;;;;1.8;1.6;;;;;;;29.54;34.68555;932.2915;;;;
2022/08/14 07:26:35;;;;;;;1.6;1.5;;;;;;;29.72;34.24512;932.1722;;;;
2022/08/14 07:29:03;;;;;;;5.3;1.8;;;;;;;29.01;35.09668;932.2226;;;;
2022/08/14 07:31:31;;;;;;;1.7;1.6;;;;;;;29.68;33.56348;932.2428;;;;
2022/08/14 07:33:57;;;;;;;1.8;1.7;;;;;;;30.8;32.8457;932.1808;;;;
2022/08/14 07:36:27;;;;;;;2.1;1.6;;;;;;;29.45;34.16504;932.1638;;;;
2022/08/14 07:38:55;;;;;;;1.6;1.5;;;;;;;29.4;34.51953;932.1422;;;;
2022/08/14 07:41:20;;;;;;;1.5;1.4;;;;;;;31.13;31.20801;932.1749;;;;
2022/08/14 07:43:49;;;;;;;2.5;1.6;;;;;;;30.64;31.65039;932.0972;;;;
2022/08/14 07:46:15;;;;;;;1.5;1.4;;;;;;;31.86;30.32227;932.1214;;;;
2022/08/14 07:48:42;;;;;;;1.6;1.5;;;;;;;32.56;30.50098;932.0619;;;;
2022/08/14 07:51:07;;;;;;;2.6;1.5;;;;;;;32.33;30.26953;932.0499;;;;
2022/08/14 07:53:34;;;;;;;2.8;1.6;;;;;;;32.27;29.15039;932.0112;;;;
2022/08/14 07:55:59;;;;;;;1.7;1.6;;;;;;;31.8;30.16309;931.9939;;;;
2022/08/14 07:58:44;;;;;;;1.3;1.2;;;;;;;32.26;28.74219;932.0095;;;;
2022/08/14 08:01:13;;;;;;;1.7;1.6;;;;;;;32.35;28.52051;932.0369;;;;
2022/08/14 08:03:38;;;;;;;1.9;1.4;;;;;;;33.1;28.14746;931.9996;;;;
2022/08/14 08:06:03;;;;;;;1.5;1.4;;;;;;;34.65;26.38672;932.017;;;;
2022/08/14 08:08:28;;;;;;;1.6;1.5;;;;;;;35.58;24.91797;932.0485;;;;
2022/08/14 08:10:56;;;;;;;1.4;1.3;;;;;;;33.93;27.80176;931.9734;;;;
2022/08/14 08:13:21;;;;;;;1.3;1.2;;;;;;;33.19;28.36816;931.9369;;;;
2022/08/14 08:15:46;;;;;;;1.5;1.3;;;;;;;34.93;27.69336;931.9777;;;;
2022/08/14 08:18:28;;;;;;;1.6;1.5;;;;;;;34.05;26.92969;931.98;;;;
2022/08/14 08:20:58;;;;;;;1.6;1.2;;;;;;;33.2;27.64941;931.9476;;;;
2022/08/14 08:23:23;;;;;;;1.8;1.4;;;;;;;34.72;26.89746;931.9314;;;;
2022/08/14 08:25:50;;;;;;;3.3;1.5;;;;;;;35.49;25.25195;931.8676;;;;
2022/08/14 08:28:16;;;;;;;1.5;1.3;;;;;;;35.24;25.91406;931.8842;;;;
2022/08/14 08:32:07;;;;;;;1.9;1.2;;;;;;;34.66;25.49512;931.8963;;;;
2022/08/14 08:34:26;;;;;;;2.5;1.4;;;;;;;33.73;25.21484;931.8834;;;;
2022/08/14 08:36:52;;;;;;;1.5;1.4;;;;;;;34.36;26.63477;931.8491;;;;
2022/08/14 08:39:17;;;;;;;1.5;1.1;;;;;;;35.2;24.84961;931.8267;;;;
2022/08/14 08:41:46;;;;;;;1.3;1.2;;;;;;;34.25;25.37598;931.7784;;;;
2022/08/14 08:44:11;;;;;;;1.3;1.2;;;;;;;32.57;26.78223;931.8336;;;;
2022/08/14 08:46:36;;;;;;;1.5;1.4;;;;;;;31.55;27.52441;931.8298;;;;
2022/08/14 08:49:05;;;;;;;1.4;1.3;;;;;;;34.36;25.30957;931.735;;;;
2022/08/14 08:51:38;;;;;;;2.1;1.3;;;;;;;34.22;25.42188;931.7109;;;;
2022/08/14 08:54:08;;;;;;;1.6;1.2;;;;;;;34.82;25.87793;931.6635;;;;
2022/08/14 08:56:33;;;;;;;1.5;1.4;;;;;;;35.73;24.86621;931.6791;;;;
2022/08/14 08:59:54;;;;;;;1.5;1.3;;;;;;;36.38;23.00195;931.6292;;;;
2022/08/14 09:02:27;;;;;;;1.4;1.3;;;;;;;34.69;24.88184;931.5499;;;;
2022/08/14 09:04:56;;;;;;;1.2;1.1;;;;;;;33.66;25.12598;931.5261;;;;
2022/08/14 09:07:21;;;;;;;2.2;1.1;;;;;;;34.47;24.99023;931.4861;;;;
2022/08/14 09:09:51;;;;;;;1.3;1.2;;;;;;;36.59;23.43652;931.5753;;;;
2022/08/14 09:12:11;;;;;;;1.2;1.2;;;;;;;35.29;23.24902;931.5619;;;;
2022/08/14 09:18:26;;;;;;;1.3;1.2;;;;;;;32.25;26.16406;931.533;;;;
2022/08/14 09:20:53;;;;;;;1.3;1;;;;;;;35.1;23.25098;931.5573;;;;
2022/08/14 09:23:18;;;;;;;1.3;1;;;;;;;36.09;23.18066;931.5906;;;;
2022/08/14 09:25:45;;;;;;;2.3;1.3;;;;;;;36.44;22.06055;931.6085;;;;
2022/08/14 09:28:10;;;;;;;1.3;1.2;;;;;;;34.95;24.47363;931.5503;;;;
2022/08/14 09:30:39;;;;;;;1.2;1.1;;;;;;;35.51;23.05469;931.5536;;;;
2022/08/14 09:33:04;;;;;;;1.5;1.1;;;;;;;34.96;22.2793;931.5648;;;;
2022/08/14 09:35:29;;;;;;;1.1;1.1;;;;;;;33.97;23.44629;931.601;;;;
2022/08/14 09:37:56;;;;;;;1.4;1.3;;;;;;;33.81;25.84473;931.6172;;;;
2022/08/14 09:40:22;;;;;;;0.9;0.9;;;;;;;33.01;26.26758;931.4991;;;;
2022/08/14 09:42:47;;;;;;;1.4;1.3;;;;;;;32.97;26.8418;931.489;;;;
2022/08/14 09:45:16;;;;;;;1.4;1.1;;;;;;;33.46;26.36621;931.4964;;;;
2022/08/14 09:47:41;;;;;;;1.3;1.2;;;;;;;33.35;25.18164;931.475;;;;
2022/08/14 09:50:06;;;;;;;1.1;1.1;;;;;;;32.65;24.80664;931.4688;;;;
2022/08/14 09:52:36;;;;;;;1.4;1;;;;;;;32.27;26.94434;931.3761;;;;
2022/08/14 09:55:02;;;;;;;1.3;1.2;;;;;;;32.29;26.74121;931.3156;;;;
2022/08/14 09:57:30;;;;;;;1.2;1.1;;;;;;;31.05;27.24316;931.3145;;;;
2022/08/14 10:00:17;;;;;;;1.2;1.1;;;;;;;31.69;27.70117;931.2364;;;;
2022/08/14 10:02:41;;;;;;;1.1;1.1;;;;;;;32.17;26.38672;931.2151;;;;
2022/08/14 10:05:08;;;;;;;1.3;1.2;;;;;;;32.82;24.25195;931.2174;;;;
2022/08/14 10:07:32;;;;;;;1.8;1.3;;;;;;;32.85;28.34766;931.1951;;;;
2022/08/14 10:09:56;;;;;;;1.9;1.4;;;;;;;32.27;30.19434;931.197;;;;
2022/08/14 10:12:23;;;;;;;1.3;1.2;;;;;;;31.96;31.13281;931.1268;;;;
2022/08/14 10:14:53;;;;;;;2;1.5;;;;;;;31.39;30.91406;931.0834;;;;
2022/08/14 10:17:19;;;;;;;1.3;1.2;;;;;;;31.89;30.30078;931.0374;;;;
2022/08/14 10:19:43;;;;;;;1.3;1.1;;;;;;;31.07;31.22656;931.0463;;;;
2022/08/14 10:25:03;;;;;;;1.2;1;;;;;;;31.56;29.78809;930.9975;;;;
2022/08/14 10:27:30;;;;;;;1.4;1.3;;;;;;;31.76;29.62109;930.9412;;;;
2022/08/14 10:29:56;;;;;;;1.4;1.3;;;;;;;32.78;26.77051;930.8403;;;;
2022/08/14 10:32:21;;;;;;;1.6;1.5;;;;;;;32.62;27.5293;930.8187;;;;
2022/08/14 10:34:46;;;;;;;1.3;1.2;;;;;;;32.79;27.78027;930.7289;;;;
2022/08/14 10:37:11;;;;;;;1.2;1.1;;;;;;;33.67;28.20703;930.7114;;;;
2022/08/14 10:39:37;;;;;;;2.7;1.3;;;;;;;34.4;25.97461;930.7043;;;;
2022/08/14 10:42:04;;;;;;;1.4;1.3;;;;;;;34.41;27.08301;930.6697;;;;
2022/08/14 10:45:53;;;;;;;1.3;1.2;;;;;;;35.06;27.44824;930.6514;;;;
2022/08/14 10:48:17;;;;;;;1.3;1.2;;;;;;;34.5;29.05273;930.6385;;;;
2022/08/14 10:50:44;;;;;;;1.1;1.1;;;;;;;35.75;23.00586;930.5828;;;;
2022/08/14 10:53:07;;;;;;;1.2;1.1;;;;;;;35.97;25.19336;930.5661;;;;
2022/08/14 10:55:38;;;;;;;1.5;1.2;;;;;;;36.13;24.08984;930.4794;;;;
2022/08/14 10:57:58;;;;;;;1.3;1.2;;;;;;;35.77;26.5957;930.5011;;;;
2022/08/14 11:00:30;;;;;;;1.1;1.1;;;;;;;35.69;26.50684;930.4481;;;;
2022/08/14 11:06:23;;;;;;;1.5;1.4;;;;;;;36.63;24.40723;930.3675;;;;
2022/08/14 11:08:51;;;;;;;1.5;1.2;;;;;;;37.38;23.9375;930.3424;;;;
2022/08/14 11:11:19;;;;;;;1.5;1.4;;;;;;;38.22;23.09375;930.3514;;;;
2022/08/14 11:13:49;;;;;;;1.3;1.2;;;;;;;38.3;21.5918;930.3416;;;;
2022/08/14 11:16:12;;;;;;;1.7;1.6;;;;;;;38.15;22.33789;930.2937;;;;
2022/08/14 11:18:37;;;;;;;2;1.4;;;;;;;38;23.07129;930.3076;;;;
2022/08/14 11:21:05;;;;;;;1.5;1.4;;;;;;;38.31;23.62109;930.2983;;;;
2022/08/14 11:23:34;;;;;;;3.6;1.2;;;;;;;37.93;22.93359;930.2258;;;;
2022/08/14 11:26:10;;;;;;;1.7;1.5;;;;;;;36.9;25.38965;930.1799;;;;
2022/08/14 11:28:36;;;;;;;1.4;1.3;;;;;;;37.71;23.61426;930.2028;;;;
2022/08/14 11:31:00;;;;;;;3.9;1.3;;;;;;;38.29;21.88184;930.2029;;;;
2022/08/14 11:33:29;;;;;;;1.4;1.3;;;;;;;38.93;21.7793;930.24;;;;
2022/08/14 11:35:51;;;;;;;2.4;1.5;;;;;;;39.3;22.125;930.2234;;;;
2022/08/14 11:38:18;;;;;;;2.1;1.3;;;;;;;39.62;21.49512;930.1665;;;;
2022/08/14 11:40:44;;;;;;;2.4;1.4;;;;;;;39.63;21.06836;930.0797;;;;
2022/08/14 11:43:12;;;;;;;1.3;1.2;;;;;;;39.31;20.84766;930.0728;;;;
2022/08/14 11:45:41;;;;;;;1.3;1.2;;;;;;;38.58;21.26367;929.9934;;;;
2022/08/14 11:48:06;;;;;;;1.2;1.2;;;;;;;37.55;22.76855;929.9533;;;;
2022/08/14 11:50:36;;;;;;;1.3;1.2;;;;;;;37.02;23.65234;929.9509;;;;
2022/08/14 11:53:01;;;;;;;1.8;1.3;;;;;;;36.78;23.22754;929.9888;;;;
2022/08/14 11:55:27;;;;;;;1.3;1.2;;;;;;;36.23;23.96191;929.9333;;;;
2022/08/14 12:00:17;;;;;;;1.5;1.3;;;;;;;33.51;26.94531;929.7711;;;;
2022/08/14 12:02:44;;;;;;;1.5;1.3;;;;;;;32.71;28.20703;929.7725;;;;
2022/08/14 12:05:11;;;;;;;1.7;1.6;;;;;;;32.71;29.32324;929.778;;;;
2022/08/14 12:07:35;;;;;;;2.6;1.5;;;;;;;32.79;29.47266;929.7569;;;;
2022/08/14 12:10:00;;;;;;;2.2;1.3;;;;;;;32.59;29.14746;929.759;;;;
2022/08/14 12:12:28;;;;;;;1.4;1.3;;;;;;;32.38;29.99805;929.7594;;;;
2022/08/14 12:14:55;;;;;;;1.7;1.3;;;;;;;32.81;28.28516;929.7355;;;;
2022/08/14 12:17:17;;;;;;;1.7;1.2;;;;;;;33.14;27.96973;929.73;;;;
2022/08/14 12:19:43;;;;;;;1.5;1.4;;;;;;;32.72;27.5957;929.7172;;;;
2022/08/14 12:22:08;;;;;;;1.6;1.4;;;;;;;32.82;27.80566;929.6839;;;;
2022/08/14 12:24:33;;;;;;;1.4;1.3;;;;;;;32.78;27.55078;929.6225;;;;
2022/08/14 12:26:58;;;;;;;3.1;1.4;;;;;;;32.55;27.26074;929.5715;;;;
2022/08/14 12:29:27;;;;;;;2.4;1.3;;;;;;;32.53;26.64844;929.6102;;;;
2022/08/14 12:31:52;;;;;;;2.7;1.3;;;;;;;32.11;29.04492;929.6074;;;;
2022/08/14 12:34:19;;;;;;;1.2;1.1;;;;;;;31.9;30.78027;929.5348;;;;
2022/08/14 12:36:50;;;;;;;1.5;1.4;;;;;;;31.94;30.50781;929.5812;;;;
2022/08/14 12:39:16;;;;;;;2.6;1.3;;;;;;;32.14;29.13086;929.652;;;;
2022/08/14 12:41:41;;;;;;;1.4;1.3;;;;;;;32.24;29.16113;929.5157;;;;
2022/08/14 12:44:08;;;;;;;2.8;1.5;;;;;;;31.97;29.8623;929.5378;;;;
2022/08/14 12:46:34;;;;;;;2.6;1.3;;;;;;;31.9;29.34277;929.515;;;;
2022/08/14 12:48:59;;;;;;;1.4;1.3;;;;;;;32.06;28.50195;929.4999;;;;
2022/08/14 12:51:26;;;;;;;1.4;1.2;;;;;;;32.37;27.41797;929.5306;;;;
2022/08/14 12:53:50;;;;;;;2.8;1.2;;;;;;;32.49;28.08594;929.46;;;;
2022/08/14 12:56:16;;;;;;;1.5;1.4;;;;;;;32.74;26.45605;929.4305;;;;
2022/08/14 12:58:48;;;;;;;1.4;1.3;;;;;;;32.53;28.86816;929.4102;;;;
2022/08/14 13:01:10;;;;;;;2.3;1.5;;;;;;;32.52;28.71094;929.433;;;;
2022/08/14 13:03:36;;;;;;;3;1.6;;;;;;;32.38;27.7666;929.4017;;;;
2022/08/14 13:06:05;;;;;;;1.3;1.1;;;;;;;32.56;27.76563;929.3398;;;;
2022/08/14 13:08:32;;;;;;;1.4;1.3;;;;;;;32.47;27.25586;929.3458;;;;
2022/08/14 13:10:58;;;;;;;1.4;1.3;;;;;;;32.03;28.93164;929.3067;;;;
2022/08/14 13:13:27;;;;;;;1.4;1.3;;;;;;;32.16;27.93262;929.2997;;;;
2022/08/14 13:15:51;;;;;;;1.4;1.3;;;;;;;32.38;26.55566;929.2231;;;;
2022/08/14 13:18:14;;;;;;;1.4;1.3;;;;;;;32.61;26.86914;929.2697;;;;
2022/08/14 13:20:42;;;;;;;2.6;1.3;;;;;;;32.45;27.4834;929.2668;;;;
2022/08/14 13:23:07;;;;;;;1.7;1.4;;;;;;;32.61;26.77246;929.1685;;;;
2022/08/14 13:25:36;;;;;;;1.4;1.3;;;;;;;32.61;26.72461;929.2285;;;;
2022/08/14 13:27:59;;;;;;;1.6;1.5;;;;;;;32.75;28.47363;929.2542;;;;
2022/08/14 13:30:25;;;;;;;1.4;1.3;;;;;;;32.73;27.5;929.2177;;;;
2022/08/14 13:32:51;;;;;;;1.4;1.3;;;;;;;32.68;26.59668;929.2217;;;;
2022/08/14 13:35:19;;;;;;;1.6;1.5;;;;;;;32.52;26.37109;929.2004;;;;
2022/08/14 13:37:44;;;;;;;2.1;1.4;;;;;;;32.38;27.08301;929.1841;;;;
2022/08/14 13:40:09;;;;;;;1.5;1.2;;;;;;;32.23;27.08594;929.0988;;;;
2022/08/14 13:42:37;;;;;;;1.6;1.5;;;;;;;31.68;29.44824;929.1027;;;;
2022/08/14 13:45:02;;;;;;;35.8;4.3;;;;;;;31.45;29.21777;929.0937;;;;
2022/08/14 13:47:31;;;;;;;2.9;1.4;;;;;;;31.36;31.05469;929.0848;;;;
2022/08/14 13:49:54;;;;;;;1.7;1.6;;;;;;;31.3;31.12207;929.1099;;;;
2022/08/14 13:52:21;;;;;;;2.6;1.4;;;;;;;31.51;29.29297;929.074;;;;
2022/08/14 13:54:46;;;;;;;2.8;1.6;;;;;;;31.67;28.71777;929.0311;;;;
2022/08/14 13:57:16;;;;;;;1.9;1.2;;;;;;;31.78;28.58008;929.049;;;;
2022/08/14 13:59:39;;;;;;;1.8;1.4;;;;;;;31.75;29.02246;929.0002;;;;
2022/08/14 14:02:04;;;;;;;1.5;1.4;;;;;;;31.63;28.79883;928.9807;;;;
2022/08/14 14:04:29;;;;;;;1.7;1.6;;;;;;;31.76;28.77051;928.9481;;;;
2022/08/14 14:06:54;;;;;;;1.7;1.4;;;;;;;31.64;29.08691;928.9291;;;;
2022/08/14 14:09:19;;;;;;;1.8;1.7;;;;;;;31.35;29.51074;928.8794;;;;
2022/08/14 14:11:45;;;;;;;1.9;1.5;;;;;;;31.11;30.65527;928.7975;;;;
2022/08/14 14:14:13;;;;;;;4.3;1.7;;;;;;;31.07;30.12598;928.8613;;;;
2022/08/14 14:16:38;;;;;;;3.2;1.9;;;;;;;31.01;28.31738;928.8049;;;;
2022/08/14 14:19:06;;;;;;;3.6;1.6;;;;;;;31.14;28.82715;928.764;;;;
2022/08/14 14:21:33;;;;;;;1.6;1.4;;;;;;;31.16;31.71094;928.7921;;;;
2022/08/14 14:23:59;;;;;;;4.2;1.8;;;;;;;31.26;28.64355;928.7289;;;;
2022/08/14 14:26:23;;;;;;;8.3;1.6;;;;;;;31.08;30.16309;928.6986;;;;
2022/08/14 14:28:50;;;;;;;3.4;1.7;;;;;;;30.87;31.00977;928.5829;;;;
2022/08/14 14:31:15;;;;;;;1.9;1.6;;;;;;;30.61;31.20703;928.6503;;;;
2022/08/14 14:33:39;;;;;;;2.7;1.8;;;;;;;30.59;32.66406;928.6644;;;;
2022/08/14 14:36:07;;;;;;;2;1.5;;;;;;;30.62;32.51074;928.5967;;;;
2022/08/14 14:38:32;;;;;;;1.8;1.7;;;;;;;30.71;32.56348;928.6753;;;;
2022/08/14 14:40:57;;;;;;;3;1.9;;;;;;;30.83;30.03906;928.6524;;;;
2022/08/14 14:43:26;;;;;;;2.7;2;;;;;;;30.9;30.56934;928.663;;;;
2022/08/14 14:45:49;;;;;;;1.4;1.3;;;;;;;30.96;28.75586;928.6238;;;;
2022/08/14 14:48:20;;;;;;;1.6;1.5;;;;;;;30.97;30.15527;928.6312;;;;
2022/08/14 14:50:45;;;;;;;2.4;1.6;;;;;;;30.67;31.00879;928.6591;;;;
2022/08/14 14:53:13;;;;;;;4.6;1.8;;;;;;;30.55;30.12793;928.7076;;;;
2022/08/14 14:55:40;;;;;;;2.1;1.5;;;;;;;30.04;31.22754;928.6866;;;;
2022/08/14 14:58:03;;;;;;;5.2;1.6;;;;;;;30.22;31.19141;928.6599;;;;
2022/08/14 15:00:31;;;;;;;1.6;1.5;;;;;;;30.03;31.35742;928.5478;;;;
2022/08/14 15:02:56;;;;;;;4;1.8;;;;;;;29.92;32.41211;928.5901;;;;
2022/08/14 15:05:25;;;;;;;1.5;1.4;;;;;;;29.6;33.79492;928.6286;;;;
2022/08/14 15:07:53;;;;;;;1.6;1.5;;;;;;;29.81;31.15234;928.593;;;;